Walla Walla, Washington
Current Conditions -  °F | °C
As of 12:53 AM on Sunday 26 Oct 2014 (Local Time) from KALW Reporting Station
Overcast Overcast  
Wind Chill: 54°   Ceiling: 10000
Heat Index: 54°   Visibility: 10mi
Dew Point: 40°   Wind: 12mph
Humidity: 59%   Direction: 210°SSW
Pressure: 29.84"   Gusts: NA
Location:  46.07°N, 118.34°W
Report Text: KALW 260753Z AUTO 21010KT 10SM OVC100 12/04 A2984 RMK AO2 SLP107 T01220044 401890089 $
Loading
Personal Weather Stations






























Interactive Weather Map
Tropical Storm Tracking
New forecast layout! Learn more

10-Day Weather Forecast

Advertisements
Track Severe Weather on mobile